Time;durP1;ratioP1;P1;durP2;ratioP2;P2;SDS_P1;SDS_P2;PMS_P1;PMS_P2;Temp;Humidity;BMP_temperature;BMP_pressure;BME280_temperature;BME280_humidity;BME280_pressure;Samples;Min_cycle;Max_cycle;Signal;HPM_P1;HPM_P2
2022/05/27 00:01:33;;;;;;;17.95;4.90;;;14.30;99.90;;;;;;5021081;28;20084;-82
2022/05/27 00:04:01;;;;;;;13.82;4.45;;;14.30;99.90;;;;;;5027898;28;20567;-82
2022/05/27 00:06:28;;;;;;;16.40;5.07;;;14.20;99.90;;;;;;5024315;28;20041;-82
2022/05/27 00:08:54;;;;;;;11.70;4.60;;;14.20;99.90;;;;;;5018603;28;20045;-82
2022/05/27 00:11:24;;;;;;;15.63;5.20;;;14.20;99.90;;;;;;5028419;28;20483;-82
2022/05/27 00:13:51;;;;;;;16.08;4.65;;;14.20;99.90;;;;;;5022555;28;20049;-82
2022/05/27 00:16:17;;;;;;;16.85;5.00;;;14.20;99.90;;;;;;5023728;28;20046;-82
2022/05/27 00:18:42;;;;;;;16.83;5.40;;;14.10;99.90;;;;;;5024910;28;20128;-82
2022/05/27 00:21:09;;;;;;;20.00;5.80;;;14.10;99.90;;;;;;5025069;28;20156;-82
2022/05/27 00:23:37;;;;;;;20.85;6.10;;;14.10;99.90;;;;;;5022591;28;20110;-82
2022/05/27 00:26:03;;;;;;;20.05;5.57;;;14.10;99.90;;;;;;5028464;28;20045;-83
2022/05/27 00:28:28;;;;;;;23.70;5.45;;;14.10;99.90;;;;;;5014195;28;20038;-82
2022/05/27 00:30:54;;;;;;;15.60;5.07;;;14.10;99.90;;;;;;5013977;28;20037;-82
2022/05/27 00:33:20;;;;;;;19.48;5.22;;;14.00;99.90;;;;;;5016215;28;20431;-82
2022/05/27 00:35:46;;;;;;;20.60;5.43;;;14.00;99.90;;;;;;5013019;28;20507;-82
2022/05/27 00:38:12;;;;;;;18.60;4.68;;;14.00;99.90;;;;;;5018488;28;20037;-82
2022/05/27 00:40:44;;;;;;;11.57;4.00;;;14.00;99.90;;;;;;5025573;28;20091;-83
2022/05/27 00:43:11;;;;;;;16.20;4.90;;;14.00;99.90;;;;;;5012279;28;20405;-82
2022/05/27 00:45:40;;;;;;;15.13;4.32;;;14.00;99.90;;;;;;5009373;28;20045;-83
2022/05/27 00:48:12;;;;;;;17.05;4.60;;;13.90;99.90;;;;;;5019053;28;20060;-82
2022/05/27 00:50:41;;;;;;;17.58;5.22;;;13.90;99.90;;;;;;5012333;28;20124;-82
2022/05/27 00:53:09;;;;;;;16.98;4.72;;;13.80;99.90;;;;;;5011457;28;20041;-82
2022/05/27 00:55:44;;;;;;;16.75;4.90;;;13.80;99.90;;;;;;5025290;28;20050;-82
2022/05/27 00:58:12;;;;;;;15.55;4.82;;;13.80;99.90;;;;;;5025310;28;20772;-82
2022/05/27 01:00:39;;;;;;;15.55;4.55;;;13.70;99.90;;;;;;5026132;28;20077;-82
2022/05/27 01:03:07;;;;;;;21.20;5.32;;;13.60;99.90;;;;;;5023553;28;20041;-82
2022/05/27 01:05:33;;;;;;;19.25;4.97;;;13.60;99.90;;;;;;5023213;28;20033;-82
2022/05/27 01:08:03;;;;;;;22.30;5.72;;;13.50;99.90;;;;;;5023195;28;20151;-81
2022/05/27 01:10:37;;;;;;;22.63;5.35;;;13.40;99.90;;;;;;5024850;28;20154;-81
2022/05/27 01:13:20;;;;;;;19.92;5.70;;;13.40;99.90;;;;;;5024756;28;20530;-82
2022/05/27 01:16:07;;;;;;;19.90;4.93;;;13.40;99.90;;;;;;5025439;28;20065;-82
2022/05/27 01:21:56;;;;;;;16.60;5.18;;;13.30;99.90;;;;;;5020181;28;20077;-82
2022/05/27 01:24:40;;;;;;;20.88;6.90;;;13.30;99.90;;;;;;5021270;28;20049;-81
2022/05/27 01:27:27;;;;;;;21.52;5.30;;;13.30;99.90;;;;;;5018048;28;20041;-83
2022/05/27 01:30:15;;;;;;;18.25;5.18;;;13.20;99.90;;;;;;5023831;28;20128;-83
2022/05/27 01:32:49;;;;;;;22.40;5.00;;;12.70;99.90;;;;;;5009482;28;20141;-83
2022/05/27 01:35:26;;;;;;;13.93;4.22;;;13.20;99.90;;;;;;5018768;28;20398;-83
2022/05/27 01:38:12;;;;;;;16.80;4.60;;;13.20;99.90;;;;;;5023864;28;20088;-83
2022/05/27 01:40:50;;;;;;;15.95;3.63;;;13.20;99.90;;;;;;5016478;28;20124;-83
2022/05/27 01:43:28;;;;;;;16.48;4.38;;;13.20;99.90;;;;;;5022036;28;20111;-83
2022/05/27 01:46:07;;;;;;;19.45;3.75;;;13.10;99.90;;;;;;5018181;28;20091;-83
2022/05/27 01:48:51;;;;;;;15.57;3.58;;;13.20;99.90;;;;;;5026367;28;20653;-83
2022/05/27 01:51:44;;;;;;;15.75;3.28;;;13.10;99.90;;;;;;5013602;28;20049;-83
2022/05/27 01:54:22;;;;;;;18.88;4.47;;;13.10;99.90;;;;;;5026241;28;20128;-83
2022/05/27 01:56:54;;;;;;;12.45;3.72;;;13.00;99.90;;;;;;5014680;28;20045;-83
2022/05/27 01:59:27;;;;;;;15.10;3.65;;;13.00;99.90;;;;;;5023288;28;20045;-83
2022/05/27 02:02:03;;;;;;;12.80;3.35;;;13.00;99.90;;;;;;5020644;28;20054;-83
2022/05/27 02:04:51;;;;;;;19.08;3.58;;;12.90;99.90;;;;;;5019163;28;20137;-83
2022/05/27 02:07:23;;;;;;;17.58;3.47;;;12.80;99.90;;;;;;5022826;28;20041;-83
2022/05/27 02:09:56;;;;;;;13.35;3.45;;;12.80;99.90;;;;;;5019876;28;20048;-83
2022/05/27 02:12:44;;;;;;;18.83;4.10;;;12.70;99.90;;;;;;5034558;28;20046;-83
2022/05/27 02:15:18;;;;;;;15.30;4.03;;;12.70;99.90;;;;;;5023466;28;20500;-83
2022/05/27 02:17:50;;;;;;;19.10;3.43;;;12.60;99.90;;;;;;5018864;28;20042;-82
2022/05/27 02:20:30;;;;;;;9.40;3.28;;;12.60;99.90;;;;;;5021786;28;20115;-83
2022/05/27 02:23:00;;;;;;;15.38;4.18;;;12.50;99.90;;;;;;5018144;28;20046;-83
2022/05/27 02:25:32;;;;;;;14.40;3.20;;;12.50;99.90;;;;;;5011541;28;20057;-83
2022/05/27 02:28:21;;;;;;;20.30;4.25;;;12.40;99.90;;;;;;5020925;28;20049;-83
2022/05/27 02:30:52;;;;;;;16.13;2.85;;;12.40;99.90;;;;;;5024659;28;20045;-82
2022/05/27 02:36:28;;;;;;;14.68;3.45;;;12.30;99.90;;;;;;5023671;28;20045;-82
2022/05/27 02:38:54;;;;;;;18.58;3.22;;;12.30;99.90;;;;;;5022954;28;20549;-82
2022/05/27 02:41:34;;;;;;;14.90;3.63;;;12.30;99.90;;;;;;5021636;28;20030;-82
2022/05/27 02:44:05;;;;;;;9.65;2.80;;;12.10;99.90;;;;;;5013887;28;20049;-83
2022/05/27 02:47:00;;;;;;;13.82;4.05;;;12.20;99.90;;;;;;5028187;28;20498;-83
2022/05/27 02:49:36;;;;;;;12.45;3.08;;;12.20;99.90;;;;;;5024883;28;20045;-83
2022/05/27 02:52:13;;;;;;;16.25;3.15;;;12.10;99.90;;;;;;5025925;28;20095;-83
2022/05/27 02:54:46;;;;;;;21.67;3.40;;;12.10;99.90;;;;;;5023453;28;20084;-83
2022/05/27 02:57:36;;;;;;;13.40;3.03;;;12.00;99.90;;;;;;5019758;28;20050;-83
2022/05/27 03:00:08;;;;;;;14.60;2.78;;;12.00;99.90;;;;;;5025858;28;20041;-83
2022/05/27 03:02:34;;;;;;;14.88;3.80;;;12.00;99.90;;;;;;5019555;28;20037;-83
2022/05/27 03:05:00;;;;;;;11.68;3.50;;;11.90;99.90;;;;;;5020348;28;20052;-82
2022/05/27 03:08:08;;;;;;;17.10;3.65;;;11.90;99.90;;;;;;5023826;28;20529;-83
2022/05/27 03:10:59;;;;;;;14.55;2.75;;;11.80;99.90;;;;;;5020936;28;20045;-82
2022/05/27 03:13:50;;;;;;;14.23;2.97;;;11.80;99.90;;;;;;5024374;28;20988;-82
2022/05/27 03:16:48;;;;;;;14.60;3.40;;;11.80;99.90;;;;;;5018106;28;20042;-83
2022/05/27 03:19:51;;;;;;;16.67;2.95;;;11.70;99.90;;;;;;5028723;28;20037;-82
2022/05/27 03:22:28;;;;;;;26.73;4.28;;;11.70;99.90;;;;;;5021333;28;20090;-83
2022/05/27 03:25:03;;;;;;;12.68;3.17;;;11.70;99.90;;;;;;5023597;28;20123;-83
2022/05/27 03:28:00;;;;;;;8.90;2.55;;;11.70;99.90;;;;;;5027806;28;20057;-82
2022/05/27 03:30:40;;;;;;;19.33;2.83;;;11.70;99.90;;;;;;5027115;28;20137;-82
2022/05/27 03:33:17;;;;;;;16.77;3.33;;;11.60;99.90;;;;;;5020558;28;20068;-83
2022/05/27 03:36:14;;;;;;;16.45;3.40;;;11.60;99.90;;;;;;5019369;28;20053;-82
2022/05/27 03:38:47;;;;;;;12.80;2.60;;;11.60;99.90;;;;;;5018952;28;20053;-82
2022/05/27 03:41:24;;;;;;;18.55;3.63;;;11.60;99.90;;;;;;5025621;28;20047;-83
2022/05/27 03:43:50;;;;;;;13.98;3.60;;;11.60;99.90;;;;;;5026617;28;20053;-83
2022/05/27 03:46:37;;;;;;;13.02;3.08;;;11.60;99.90;;;;;;5023895;28;20071;-82
2022/05/27 03:49:05;;;;;;;15.25;3.20;;;11.60;99.90;;;;;;5024434;28;20061;-83
2022/05/27 03:51:45;;;;;;;13.23;2.90;;;11.60;99.90;;;;;;5026418;28;20041;-82
2022/05/27 03:54:11;;;;;;;15.65;3.35;;;11.60;99.90;;;;;;4997740;28;20050;-83
2022/05/27 03:56:39;;;;;;;10.35;3.08;;;11.60;99.90;;;;;;5020890;28;20362;-82
2022/05/27 03:59:07;;;;;;;12.35;3.13;;;11.60;99.90;;;;;;5025607;28;20057;-83
2022/05/27 04:01:35;;;;;;;11.05;2.60;;;11.60;99.90;;;;;;5021846;28;20049;-83
2022/05/27 04:04:03;;;;;;;16.75;3.65;;;11.60;99.90;;;;;;5023972;28;20419;-83
2022/05/27 04:06:30;;;;;;;14.68;3.20;;;11.70;99.90;;;;;;5017746;28;20512;-82
2022/05/27 04:08:57;;;;;;;11.38;2.60;;;11.70;99.90;;;;;;5029090;28;20122;-83
2022/05/27 04:11:23;;;;;;;10.65;2.72;;;11.70;99.90;;;;;;5020429;28;20444;-82
2022/05/27 04:13:49;;;;;;;13.73;2.58;;;11.80;99.90;;;;;;5029033;28;20096;-82
2022/05/27 04:16:14;;;;;;;10.13;2.25;;;11.80;99.90;;;;;;5028264;28;20073;-83
2022/05/27 04:18:40;;;;;;;13.15;2.85;;;11.80;99.90;;;;;;5019118;28;20081;-82
2022/05/27 04:21:05;;;;;;;15.52;2.70;;;11.90;99.90;;;;;;5027634;28;20068;-83
2022/05/27 04:23:31;;;;;;;14.05;2.78;;;12.00;99.90;;;;;;5022707;28;20128;-83
2022/05/27 04:25:57;;;;;;;13.85;3.47;;;12.00;99.90;;;;;;5029431;28;20555;-82
2022/05/27 04:28:23;;;;;;;14.95;3.65;;;12.10;99.90;;;;;;5019185;28;20077;-82
2022/05/27 04:30:49;;;;;;;12.05;2.78;;;12.10;99.90;;;;;;5028691;28;20072;-82
2022/05/27 04:33:14;;;;;;;14.05;2.90;;;12.10;99.90;;;;;;5021429;28;20034;-83
2022/05/27 04:35:43;;;;;;;15.25;3.30;;;12.20;99.90;;;;;;5020394;28;20137;-82
2022/05/27 04:38:09;;;;;;;14.10;3.00;;;12.20;99.90;;;;;;5026406;28;20144;-82
2022/05/27 04:40:35;;;;;;;12.07;2.20;;;12.30;99.90;;;;;;5024712;28;20048;-80
2022/05/27 04:43:02;;;;;;;15.55;2.83;;;12.30;99.90;;;;;;5022653;28;20053;-80
2022/05/27 04:45:28;;;;;;;15.02;3.00;;;12.30;99.90;;;;;;5014570;28;20051;-80
2022/05/27 04:47:54;;;;;;;10.57;2.42;;;12.30;99.90;;;;;;5022829;28;20219;-81
2022/05/27 04:50:20;;;;;;;13.15;3.00;;;12.30;99.90;;;;;;5025036;28;20487;-81
2022/05/27 04:52:46;;;;;;;13.25;2.60;;;12.30;99.90;;;;;;5022199;28;20053;-81
2022/05/27 04:55:14;;;;;;;19.17;3.38;;;12.30;99.90;;;;;;5020882;28;20073;-82
2022/05/27 04:57:52;;;;;;;16.58;3.05;;;12.30;99.90;;;;;;5016047;28;20054;-82
2022/05/27 05:00:25;;;;;;;13.65;2.53;;;12.30;99.90;;;;;;5020998;28;20052;-81
2022/05/27 05:02:51;;;;;;;8.80;2.05;;;12.30;99.90;;;;;;5021076;28;20181;-82
2022/05/27 05:05:20;;;;;;;10.43;2.10;;;12.20;99.90;;;;;;5022724;28;20647;-82
2022/05/27 05:07:50;;;;;;;14.35;2.85;;;12.20;99.90;;;;;;5022984;28;21884;-83
2022/05/27 05:10:19;;;;;;;15.30;2.70;;;12.20;99.90;;;;;;5024286;28;20049;-82
2022/05/27 05:12:45;;;;;;;13.85;2.50;;;12.20;99.90;;;;;;5022304;28;20060;-81
2022/05/27 05:15:11;;;;;;;19.05;3.45;;;12.20;99.90;;;;;;5022637;28;20049;-79
2022/05/27 05:17:37;;;;;;;13.55;3.28;;;12.20;99.90;;;;;;5022998;28;20041;-84
2022/05/27 05:20:07;;;;;;;11.52;2.67;;;12.30;99.90;;;;;;5027670;28;20049;-86
2022/05/27 05:22:36;;;;;;;18.08;2.70;;;12.20;99.90;;;;;;5023995;28;20041;-87
2022/05/27 05:25:04;;;;;;;14.45;3.33;;;12.30;99.90;;;;;;5027382;28;20544;-85
2022/05/27 05:27:30;;;;;;;15.40;3.05;;;12.30;99.90;;;;;;5015488;28;20045;-86
2022/05/27 05:29:57;;;;;;;13.63;2.42;;;12.30;99.90;;;;;;5024015;28;20037;-86
2022/05/27 05:32:23;;;;;;;13.55;2.45;;;12.40;99.90;;;;;;5025469;28;20492;-86
2022/05/27 05:34:49;;;;;;;13.20;2.45;;;12.40;99.90;;;;;;5019311;28;20294;-86
2022/05/27 05:37:16;;;;;;;16.27;2.25;;;12.40;99.90;;;;;;5025567;28;20120;-86
2022/05/27 05:39:41;;;;;;;11.95;2.95;;;12.50;99.90;;;;;;5018957;28;20044;-86
2022/05/27 05:42:08;;;;;;;12.15;2.50;;;12.50;99.90;;;;;;5026110;28;20049;-86
2022/05/27 05:44:35;;;;;;;13.13;2.58;;;12.50;99.90;;;;;;5017096;28;20095;-86
2022/05/27 05:47:02;;;;;;;13.88;2.55;;;12.50;99.90;;;;;;5017239;28;20038;-86
2022/05/27 05:49:28;;;;;;;11.38;2.65;;;12.50;99.90;;;;;;5018878;28;20427;-84
2022/05/27 05:51:57;;;;;;;10.38;2.80;;;12.50;99.90;;;;;;5024299;28;20038;-85
2022/05/27 05:54:24;;;;;;;14.75;3.22;;;12.50;99.90;;;;;;5022891;28;20091;-87
2022/05/27 05:56:50;;;;;;;17.92;3.45;;;12.50;99.90;;;;;;5020089;28;20489;-85
2022/05/27 05:59:18;;;;;;;13.57;2.55;;;12.50;99.90;;;;;;5026297;28;20056;-83
2022/05/27 06:01:44;;;;;;;12.05;2.95;;;12.50;99.90;;;;;;5025204;28;20073;-84
2022/05/27 06:04:10;;;;;;;11.40;2.05;;;12.50;99.90;;;;;;5026996;28;20091;-83
2022/05/27 06:06:36;;;;;;;12.98;2.15;;;12.50;99.90;;;;;;5024299;28;20601;-83
2022/05/27 06:09:03;;;;;;;13.57;2.20;;;12.50;99.90;;;;;;5019332;28;20404;-85
2022/05/27 06:11:28;;;;;;;12.13;2.50;;;12.50;99.90;;;;;;5023660;28;20033;-86
2022/05/27 06:13:54;;;;;;;12.43;2.58;;;12.50;99.90;;;;;;5023290;28;20507;-85
2022/05/27 06:16:19;;;;;;;15.88;2.25;;;12.60;99.90;;;;;;5019563;28;20049;-86
2022/05/27 06:18:46;;;;;;;13.95;2.70;;;12.70;99.90;;;;;;5023234;28;20053;-85
2022/05/27 06:21:12;;;;;;;13.00;2.45;;;12.70;99.90;;;;;;5020463;28;20053;-85
2022/05/27 06:23:37;;;;;;;14.02;3.42;;;12.70;99.90;;;;;;5022636;28;20057;-85
2022/05/27 06:26:12;;;;;;;17.98;2.78;;;12.70;99.90;;;;;;5017468;28;20042;-86
2022/05/27 06:34:26;;;;;;;;;;;12.80;99.90;;;;;;5021550;28;20050;-84
2022/05/27 06:37:05;;;;;;;15.90;2.20;;;12.80;99.90;;;;;;5020103;28;20399;-85
2022/05/27 06:39:34;;;;;;;8.02;1.85;;;12.80;99.90;;;;;;5020426;28;20047;-83
2022/05/27 06:42:00;;;;;;;8.93;1.92;;;12.80;99.90;;;;;;5023064;28;20050;-85
2022/05/27 06:44:26;;;;;;;7.53;2.10;;;12.80;99.90;;;;;;5017673;28;20123;-83
2022/05/27 06:46:52;;;;;;;14.85;2.42;;;12.90;99.90;;;;;;5026696;28;20061;-83
2022/05/27 06:49:18;;;;;;;13.23;2.28;;;12.90;99.90;;;;;;5029022;28;20057;-84
2022/05/27 06:51:44;;;;;;;11.38;2.00;;;12.90;99.90;;;;;;5031539;28;20128;-84
2022/05/27 06:54:11;;;;;;;13.10;2.00;;;12.90;99.90;;;;;;5026657;28;20120;-81
2022/05/27 06:56:38;;;;;;;13.55;2.15;;;12.90;99.90;;;;;;5030216;28;20438;-83
2022/05/27 06:59:05;;;;;;;10.10;1.95;;;13.10;99.90;;;;;;5030032;28;20120;-87
2022/05/27 07:01:30;;;;;;;13.55;2.33;;;13.10;99.90;;;;;;5031346;28;20038;-84
2022/05/27 07:03:57;;;;;;;13.60;2.58;;;13.20;99.90;;;;;;5026654;28;20048;-85
2022/05/27 07:06:25;;;;;;;13.98;2.72;;;13.30;99.90;;;;;;5032031;28;20068;-84
2022/05/27 07:08:50;;;;;;;23.10;3.08;;;13.40;99.90;;;;;;5026490;28;20052;-87
2022/05/27 07:11:16;;;;;;;14.00;2.65;;;13.60;99.90;;;;;;5032457;28;20049;-87
2022/05/27 07:13:41;;;;;;;12.93;2.08;;;13.80;99.90;;;;;;5031166;28;20041;-86
2022/05/27 07:16:07;;;;;;;11.15;2.63;;;14.00;99.90;;;;;;5025289;28;20092;-85
2022/05/27 07:18:32;;;;;;;13.02;2.83;;;14.20;99.90;;;;;;5026574;28;20065;-88
2022/05/27 07:21:03;;;;;;;11.82;2.75;;;14.40;99.90;;;;;;5023397;28;20053;-90
2022/05/27 07:23:29;;;;;;;12.63;2.33;;;14.40;99.90;;;;;;5032677;28;20045;-90
2022/05/27 07:25:55;;;;;;;11.18;2.67;;;14.50;99.90;;;;;;5030488;28;20030;-88
2022/05/27 07:28:21;;;;;;;8.80;2.10;;;14.60;99.90;;;;;;5031224;28;20049;-89
2022/05/27 07:30:46;;;;;;;10.02;2.22;;;14.60;99.90;;;;;;5028246;28;20052;-88
2022/05/27 07:33:12;;;;;;;14.15;2.08;;;14.60;99.90;;;;;;5012806;28;20048;-88
2022/05/27 07:35:37;;;;;;;15.02;2.38;;;14.70;99.90;;;;;;5028099;28;20734;-89
2022/05/27 07:38:03;;;;;;;9.23;1.90;;;14.70;99.90;;;;;;5031771;28;20037;-88
2022/05/27 07:40:28;;;;;;;12.43;2.08;;;14.80;99.90;;;;;;5022823;28;20115;-89
2022/05/27 07:42:54;;;;;;;10.05;2.10;;;14.90;99.90;;;;;;5014576;28;20041;-89
2022/05/27 07:45:26;;;;;;;15.27;2.80;;;14.90;99.90;;;;;;5020202;28;20042;-88
2022/05/27 07:47:52;;;;;;;12.40;2.08;;;14.90;99.90;;;;;;5017032;28;20053;-88
2022/05/27 07:50:20;;;;;;;11.10;2.15;;;14.90;99.90;;;;;;5032672;28;20060;-86
2022/05/27 07:52:46;;;;;;;13.32;2.78;;;15.00;99.90;;;;;;5028292;28;20041;-85
2022/05/27 07:55:12;;;;;;;13.98;2.60;;;15.20;99.90;;;;;;5028553;28;20530;-85
2022/05/27 07:57:46;;;;;;;12.27;2.22;;;15.30;99.90;;;;;;5032638;28;20161;-87
2022/05/27 08:00:18;;;;;;;15.00;2.17;;;15.30;99.90;;;;;;5021343;28;20096;-84
2022/05/27 08:02:44;;;;;;;7.38;2.63;;;15.20;99.90;;;;;;5026115;28;20366;-86
2022/05/27 08:05:12;;;;;;;11.38;2.33;;;15.30;99.90;;;;;;5030210;28;20052;-85
2022/05/27 08:07:38;;;;;;;15.00;2.80;;;15.30;99.90;;;;;;5029162;28;20416;-86
2022/05/27 08:10:05;;;;;;;11.70;2.53;;;15.40;99.90;;;;;;5024675;28;20044;-85
2022/05/27 08:12:31;;;;;;;17.20;2.33;;;15.50;99.90;;;;;;5030839;28;20046;-84
2022/05/27 08:14:57;;;;;;;14.63;1.98;;;15.50;99.90;;;;;;5022118;28;20081;-81
2022/05/27 08:17:22;;;;;;;10.23;2.42;;;15.50;99.90;;;;;;5026407;28;20076;-82
2022/05/27 08:19:49;;;;;;;15.13;2.10;;;15.50;99.90;;;;;;5029063;28;20038;-83
2022/05/27 08:22:15;;;;;;;8.63;2.20;;;15.50;99.90;;;;;;5027281;28;20073;-80
2022/05/27 08:24:41;;;;;;;17.42;2.72;;;15.50;99.90;;;;;;5032153;28;20508;-81
2022/05/27 08:27:08;;;;;;;10.52;2.35;;;15.60;99.90;;;;;;5029619;28;20125;-81
2022/05/27 08:29:33;;;;;;;14.82;3.35;;;15.70;99.90;;;;;;5031281;28;20057;-82
2022/05/27 08:32:03;;;;;;;12.07;2.22;;;15.80;99.90;;;;;;5024097;28;20131;-82
2022/05/27 08:39:58;;;;;;;9.35;2.45;;;16.20;99.90;;;;;;5023010;28;20469;-82
2022/05/27 08:42:42;;;;;;;10.50;2.25;;;16.10;99.90;;;;;;5028817;28;20103;-82
2022/05/27 08:45:21;;;;;;;12.38;2.22;;;16.00;99.90;;;;;;5026940;28;20083;-83
2022/05/27 08:47:57;;;;;;;11.35;2.42;;;15.80;99.90;;;;;;5022543;28;20124;-82
2022/05/27 08:50:29;;;;;;;12.45;2.35;;;15.80;99.90;;;;;;5027304;28;20044;-82
2022/05/27 08:53:16;;;;;;;12.00;2.75;;;15.80;99.90;;;;;;5025057;28;20472;-79
2022/05/27 09:01:31;;;;;;;12.00;1.80;;;15.70;99.90;;;;;;5014637;28;20400;-81
2022/05/27 09:04:18;;;;;;;10.23;2.00;;;15.50;99.90;;;;;;5021875;28;20400;-81
2022/05/27 09:06:50;;;;;;;12.30;2.40;;;15.50;99.90;;;;;;5025625;28;20049;-81
2022/05/27 09:09:22;;;;;;;21.40;2.70;;;15.60;99.90;;;;;;5016985;28;20129;-81
2022/05/27 09:12:12;;;;;;;11.57;2.35;;;15.50;99.90;;;;;;5028468;28;20547;-81
2022/05/27 09:14:44;;;;;;;13.15;2.25;;;15.50;99.90;;;;;;5017173;28;20050;-82
2022/05/27 09:17:15;;;;;;;12.60;2.30;;;15.40;99.90;;;;;;5020961;28;20373;-81
2022/05/27 09:19:50;;;;;;;13.45;1.92;;;15.40;99.90;;;;;;5027561;28;20075;-81
2022/05/27 09:22:38;;;;;;;12.77;2.00;;;15.30;99.90;;;;;;5029574;28;20049;-81
2022/05/27 09:25:04;;;;;;;10.82;2.47;;;15.30;99.90;;;;;;5011911;28;20111;-80
2022/05/27 09:27:55;;;;;;;13.18;1.95;;;15.30;99.90;;;;;;5026012;28;20049;-81
2022/05/27 09:30:21;;;;;;;13.35;2.42;;;15.40;99.90;;;;;;5028047;28;20042;-80
2022/05/27 09:32:58;;;;;;;11.93;1.98;;;15.70;99.90;;;;;;5025842;28;20055;-81
2022/05/27 09:35:45;;;;;;;9.75;2.00;;;15.90;99.90;;;;;;5029799;28;20512;-82
2022/05/27 09:38:27;;;;;;;10.32;1.90;;;15.90;99.90;;;;;;5025430;28;20083;-81
2022/05/27 09:41:01;;;;;;;11.55;2.10;;;16.10;99.90;;;;;;5027398;28;20044;-81
2022/05/27 09:43:43;;;;;;;11.75;1.50;;;16.00;99.90;;;;;;5030084;28;20049;-81
2022/05/27 09:46:13;;;;;;;12.25;2.35;;;15.90;99.90;;;;;;5023038;28;20669;-82
2022/05/27 09:48:38;;;;;;;8.13;1.48;;;15.70;99.90;;;;;;5021393;28;20147;-82
2022/05/27 09:51:07;;;;;;;10.40;1.58;;;15.60;99.90;;;;;;5024442;28;20511;-83
2022/05/27 09:53:53;;;;;;;11.15;2.30;;;15.70;99.90;;;;;;5028689;28;20183;-82
2022/05/27 09:56:37;;;;;;;10.63;1.90;;;15.90;99.90;;;;;;5023362;28;20412;-83
2022/05/27 09:59:22;;;;;;;;;;;16.00;99.20;;;;;;5023994;28;20045;-83
2022/05/27 10:01:48;;;;;;;11.45;2.03;;;15.90;99.30;;;;;;5024753;28;19921;-80
2022/05/27 10:04:16;;;;;;;10.10;1.63;;;15.80;99.90;;;;;;5027368;28;20120;-83
2022/05/27 10:06:42;;;;;;;11.57;2.28;;;15.90;99.90;;;;;;5028837;28;20488;-82
2022/05/27 10:09:29;;;;;;;9.80;1.92;;;15.90;99.90;;;;;;5027923;28;20049;-83
2022/05/27 10:11:57;;;;;;;9.27;2.22;;;15.80;99.90;;;;;;5029182;28;20115;-83
2022/05/27 10:14:27;;;;;;;14.73;2.05;;;15.90;99.90;;;;;;5026129;28;20369;-83
2022/05/27 10:17:10;;;;;;;15.30;2.70;;;16.00;99.90;;;;;;5029981;28;20056;-83
2022/05/27 10:19:40;;;;;;;13.88;1.90;;;16.20;99.20;;;;;;5019446;28;20048;-82
2022/05/27 10:22:22;;;;;;;9.25;1.98;;;16.20;99.10;;;;;;5028113;28;20056;-83
2022/05/27 10:25:00;;;;;;;11.23;2.05;;;16.30;98.70;;;;;;5017916;28;20045;-82
2022/05/27 10:27:41;;;;;;;12.15;2.25;;;16.40;99.60;;;;;;5024556;28;20046;-82
2022/05/27 10:30:24;;;;;;;11.30;1.70;;;16.50;99.90;;;;;;5026603;28;20045;-85
2022/05/27 10:32:50;;;;;;;11.73;1.95;;;16.60;99.20;;;;;;5022450;28;20069;-82
2022/05/27 10:35:16;;;;;;;12.30;2.17;;;16.80;99.50;;;;;;5026108;28;20120;-83
2022/05/27 10:38:10;;;;;;;9.98;2.08;;;16.90;98.70;;;;;;5016118;28;20581;-84
2022/05/27 10:40:38;;;;;;;14.20;2.38;;;17.10;97.90;;;;;;5016796;28;20179;-84
2022/05/27 10:43:41;;;;;;;11.13;1.73;;;17.20;98.20;;;;;;5027602;28;20485;-85
2022/05/27 10:46:15;;;;;;;9.68;2.20;;;17.20;96.80;;;;;;5011655;28;20104;-84
2022/05/27 10:48:52;;;;;;;13.55;2.22;;;17.10;97.30;;;;;;5014887;28;20092;-84
2022/05/27 10:51:27;;;;;;;9.93;1.70;;;17.00;96.30;;;;;;5012750;28;20537;-83
2022/05/27 10:54:14;;;;;;;13.48;2.10;;;16.90;96.50;;;;;;5016423;28;20046;-84
2022/05/27 11:02:57;;;;;;;13.30;2.00;;;16.90;95.60;;;;;;5025121;28;20041;-83
2022/05/27 11:05:44;;;;;;;12.02;2.00;;;16.80;96.70;;;;;;5022084;28;20695;-83
2022/05/27 11:08:16;;;;;;;8.35;1.90;;;16.80;97.20;;;;;;5021048;28;20069;-83
2022/05/27 11:11:04;;;;;;;10.10;2.00;;;16.80;98.00;;;;;;5028465;28;20052;-84
2022/05/27 11:16:45;;;;;;;14.05;2.65;;;17.00;97.00;;;;;;5023363;28;20493;-81
2022/05/27 11:19:19;;;;;;;11.50;2.00;;;16.80;97.00;;;;;;5026179;28;20477;-84
2022/05/27 11:22:04;;;;;;;12.45;2.03;;;16.70;97.90;;;;;;5018517;28;20099;-83
2022/05/27 11:24:38;;;;;;;11.95;1.90;;;16.70;97.80;;;;;;5022484;28;20088;-84
2022/05/27 11:27:07;;;;;;;;;;;16.80;96.50;;;;;;5020736;28;20041;-83
2022/05/27 11:30:12;;;;;;;10.75;2.03;;;16.60;96.30;;;;;;5024946;28;19997;-81
2022/05/27 11:32:47;;;;;;;12.85;2.63;;;16.30;97.40;;;;;;5020566;28;20115;-82
2022/05/27 11:35:18;;;;;;;9.63;1.98;;;16.20;98.00;;;;;;5027427;28;20038;-80
2022/05/27 11:38:01;;;;;;;13.60;2.30;;;15.90;98.30;;;;;;5032204;28;20049;-82
2022/05/27 11:40:45;;;;;;;11.20;2.20;;;15.80;99.30;;;;;;5031750;28;20404;-82
2022/05/27 11:43:37;;;;;;;9.63;1.92;;;15.90;99.00;;;;;;5032854;28;20055;-81
2022/05/27 11:46:42;;;;;;;13.93;2.00;;;16.10;98.00;;;;;;5025581;28;20053;-82
2022/05/27 11:49:11;;;;;;;;;;;16.40;97.40;;;;;;5018452;28;20050;-82
2022/05/27 11:51:57;;;;;;;13.18;2.00;;;16.70;97.90;;;;;;5029809;28;19925;-82
2022/05/27 11:54:34;;;;;;;11.57;1.55;;;17.00;97.60;;;;;;5015694;28;20484;-82
2022/05/27 11:57:24;;;;;;;12.68;2.25;;;17.10;96.80;;;;;;5018770;28;20057;-82
2022/05/27 12:00:12;;;;;;;11.73;2.28;;;17.10;96.90;;;;;;5029843;28;20037;-83
2022/05/27 12:03:07;;;;;;;8.57;2.05;;;16.90;96.30;;;;;;5025687;28;20113;-82
2022/05/27 12:05:39;;;;;;;15.48;2.20;;;16.80;97.00;;;;;;5014638;28;20125;-82
2022/05/27 12:08:35;;;;;;;9.40;2.10;;;16.70;97.60;;;;;;5012288;28;20054;-82
2022/05/27 12:11:04;;;;;;;14.70;2.15;;;16.70;97.60;;;;;;5013675;28;20132;-81
2022/05/27 12:13:37;;;;;;;11.93;1.67;;;16.60;98.10;;;;;;5029709;28;20061;-80
2022/05/27 12:16:12;;;;;;;10.10;2.60;;;16.70;98.10;;;;;;5021089;28;20053;-81
2022/05/27 12:19:04;;;;;;;;;;;16.80;97.70;;;;;;5012392;28;20101;-81
2022/05/27 12:21:42;;;;;;;10.20;2.22;;;16.80;97.80;;;;;;4996822;28;19929;-81
2022/05/27 12:24:20;;;;;;;15.38;2.50;;;16.80;97.60;;;;;;5017090;28;20077;-80
2022/05/27 12:26:50;;;;;;;8.55;1.92;;;16.70;97.80;;;;;;5026141;28;20119;-80
2022/05/27 12:29:15;;;;;;;13.77;2.13;;;16.60;98.40;;;;;;5031911;28;20080;-81
2022/05/27 12:31:42;;;;;;;14.48;2.50;;;16.70;98.00;;;;;;5031422;28;20088;-79
2022/05/27 12:34:26;;;;;;;11.40;2.30;;;16.80;98.10;;;;;;5026293;28;20048;-80
2022/05/27 12:37:12;;;;;;;13.50;2.40;;;16.70;97.30;;;;;;5014046;28;20092;-81
2022/05/27 12:39:39;;;;;;;11.25;2.78;;;16.60;97.80;;;;;;5021732;28;20320;-80
2022/05/27 12:42:18;;;;;;;10.55;1.90;;;16.50;97.90;;;;;;5031531;28;20484;-80
2022/05/27 12:44:45;;;;;;;7.57;1.73;;;16.40;98.20;;;;;;5018295;28;20045;-81
2022/05/27 12:47:35;;;;;;;12.70;1.85;;;16.20;99.10;;;;;;5032043;28;20049;-81
2022/05/27 12:50:17;;;;;;;14.18;2.30;;;16.10;98.10;;;;;;5028417;28;20060;-81
2022/05/27 12:52:48;;;;;;;13.60;2.65;;;16.10;98.60;;;;;;5028868;28;20045;-81
2022/05/27 13:01:48;;;;;;;15.90;2.80;;;16.50;99.10;;;;;;5026682;28;20045;-82
2022/05/27 13:04:53;;;;;;;9.30;2.10;;;16.60;98.70;;;;;;5026887;28;20555;-82
2022/05/27 13:07:28;;;;;;;9.75;1.83;;;16.60;98.80;;;;;;5027512;28;20053;-82
2022/05/27 13:09:55;;;;;;;11.85;1.98;;;16.70;98.30;;;;;;5028114;28;20048;-81
2022/05/27 13:13:02;;;;;;;12.68;1.80;;;16.70;98.90;;;;;;5029830;28;20052;-82
2022/05/27 13:15:33;;;;;;;9.70;1.83;;;16.80;98.90;;;;;;4994699;28;20049;-81
2022/05/27 13:18:19;;;;;;;12.70;2.30;;;16.80;98.10;;;;;;5020365;28;20441;-81
2022/05/27 13:21:08;;;;;;;13.57;2.03;;;17.00;98.40;;;;;;5018237;28;20081;-80
2022/05/27 13:23:48;;;;;;;12.70;2.17;;;17.00;98.00;;;;;;5027361;28;20477;-80
2022/05/27 13:26:29;;;;;;;11.60;1.92;;;16.90;97.90;;;;;;5029998;28;20041;-79
2022/05/27 13:28:58;;;;;;;9.80;2.33;;;16.90;98.40;;;;;;5018443;28;20061;-79
2022/05/27 13:31:31;;;;;;;10.23;1.98;;;16.90;98.30;;;;;;5029106;28;20041;-79
2022/05/27 13:34:04;;;;;;;11.05;2.40;;;16.80;98.10;;;;;;5025344;28;20052;-79
2022/05/27 13:36:38;;;;;;;12.57;2.40;;;16.70;98.30;;;;;;5029966;28;20041;-78
2022/05/27 13:39:10;;;;;;;14.27;2.17;;;16.50;98.70;;;;;;5026993;28;20049;-80
2022/05/27 13:41:40;;;;;;;10.40;1.77;;;16.40;99.20;;;;;;5029845;28;20183;-80
2022/05/27 13:44:09;;;;;;;11.35;2.05;;;16.30;99.50;;;;;;5024422;28;20050;-81
2022/05/27 13:46:41;;;;;;;11.35;2.08;;;16.20;99.30;;;;;;5026688;28;20128;-79
2022/05/27 13:49:11;;;;;;;12.25;1.98;;;16.10;99.10;;;;;;5023552;28;20058;-79